Meteopozuelo

Informes METAR próximos a MeteoPozuelo

 

LEVS - Cuatro Vientos (Madrid) España
Actualización: 24/09/2020 22:00
Despejado
Despejado
 Viento del OSO
Viento: OSO 13 km/h
Temperatura: 17°C
Punto de Rocío: 12°C
Humedad: 73%
Barómetro: 1018 hPa
Resumen: Despejado
Visibility: greater than 10 km
2020/09/24 20:00 LEVS 242000Z 24007KT CAVOK 17/12 Q1018
LEGT - Getafe (Madrid ) España
Actualización: 24/09/2020 22:00
Few Clouds
Few Clouds
 Viento del OSO
Viento: OSO 19 km/h
Temperatura: 19°C
Punto de Rocío: 11°C
Humedad: 60%
Barómetro: 1018 hPa
Clouds: Few Clouds
Visibility: 10 km
Cloud details: Few Clouds 1372 m
2020/09/24 20:00 LEGT 242000Z 24010KT 9999 FEW045 19/11 Q1018
 
LEMD - Barajas (Madrid) España
Actualización: 24/09/2020 22:00
Despejado
Despejado
 Viento del O
Viento: O 13 km/h
Temperatura: 20°C
Punto de Rocío: 7°C
Humedad: 43%
Barómetro: 1017 hPa
Resumen: Despejado
Visibility: greater than 10 km
2020/09/24 20:00 LEMD 242000Z 27007KT 230V310 CAVOK 20/07 Q1017 NOSIG
LETO - Torrejon de Ardoz (Madrid) España
Actualización: 24/09/2020 22:00
Despejado
Despejado
 Viento del O
Viento: O 15 km/h
Temperatura: 17°C
Punto de Rocío: 8°C
Humedad: 56%
Barómetro: 1017 hPa
Resumen: Despejado
Visibility: greater than 10 km
2020/09/24 20:00 LETO 242000Z 28008KT CAVOK 17/08 Q1017 NOSIG
 
LECV - Colmenar Viejo (Madrid)
Actualización: 24/09/2020 20:00
NOT Current
Few Clouds
Few Clouds
 Viento del O
Viento: O 19 km/h
Temperatura: 17°C
Punto de Rocío: 6°C
Humedad: 49%
Barómetro: 1017 hPa
Clouds: Few Clouds
Visibility: 10 km
Cloud details: Few Clouds 1219 m
2020/09/24 18:00 LECV 241800Z 28010KT 9999 FEW040 17/06 Q1017